sensor_id;sensor_type;location;lat;lon;timestamp;P1;durP1;ratioP1;P2;durP2;ratioP2
76604;SDS011;65496;50.978;16.998;2023-01-19T00:02:23;20.15;;;15.07;;
76604;SDS011;65496;50.978;16.998;2023-01-19T00:04:50;20.15;;;15.35;;
76604;SDS011;65496;50.978;16.998;2023-01-19T00:07:16;21.75;;;14.77;;
76604;SDS011;65496;50.978;16.998;2023-01-19T00:09:42;18.83;;;13.73;;
76604;SDS011;65496;50.978;16.998;2023-01-19T00:12:08;18.90;;;13.60;;
76604;SDS011;65496;50.978;16.998;2023-01-19T00:14:34;19.30;;;15.18;;
76604;SDS011;65496;50.978;16.998;2023-01-19T00:17:00;21.85;;;15.23;;
76604;SDS011;65496;50.978;16.998;2023-01-19T00:19:27;20.77;;;15.07;;
76604;SDS011;65496;50.978;16.998;2023-01-19T00:21:53;16.77;;;14.13;;
76604;SDS011;65496;50.978;16.998;2023-01-19T00:24:20;22.50;;;15.57;;
76604;SDS011;65496;50.978;16.998;2023-01-19T00:26:46;19.55;;;13.98;;
76604;SDS011;65496;50.978;16.998;2023-01-19T00:29:12;19.98;;;15.50;;
76604;SDS011;65496;50.978;16.998;2023-01-19T00:31:39;19.63;;;15.75;;
76604;SDS011;65496;50.978;16.998;2023-01-19T00:34:06;19.73;;;14.85;;
76604;SDS011;65496;50.978;16.998;2023-01-19T00:36:33;20.65;;;15.18;;
76604;SDS011;65496;50.978;16.998;2023-01-19T00:38:59;21.30;;;15.27;;
76604;SDS011;65496;50.978;16.998;2023-01-19T00:41:25;18.13;;;13.27;;
76604;SDS011;65496;50.978;16.998;2023-01-19T00:44:10;19.50;;;13.57;;
76604;SDS011;65496;50.978;16.998;2023-01-19T00:46:37;18.80;;;14.38;;
76604;SDS011;65496;50.978;16.998;2023-01-19T00:49:04;21.52;;;16.48;;
76604;SDS011;65496;50.978;16.998;2023-01-19T00:51:30;17.52;;;13.63;;
76604;SDS011;65496;50.978;16.998;2023-01-19T00:53:56;21.05;;;15.30;;
76604;SDS011;65496;50.978;16.998;2023-01-19T00:56:29;18.45;;;14.73;;
76604;SDS011;65496;50.978;16.998;2023-01-19T00:58:58;18.92;;;13.50;;
76604;SDS011;65496;50.978;16.998;2023-01-19T01:01:25;18.83;;;14.18;;
76604;SDS011;65496;50.978;16.998;2023-01-19T01:03:51;20.67;;;14.88;;
76604;SDS011;65496;50.978;16.998;2023-01-19T01:06:18;19.27;;;15.10;;
76604;SDS011;65496;50.978;16.998;2023-01-19T01:08:45;19.92;;;15.27;;
76604;SDS011;65496;50.978;16.998;2023-01-19T01:11:10;19.33;;;14.07;;
76604;SDS011;65496;50.978;16.998;2023-01-19T01:13:37;19.30;;;15.80;;
76604;SDS011;65496;50.978;16.998;2023-01-19T01:16:02;19.73;;;15.43;;
76604;SDS011;65496;50.978;16.998;2023-01-19T01:18:29;19.83;;;13.82;;
76604;SDS011;65496;50.978;16.998;2023-01-19T01:21:02;18.27;;;14.07;;
76604;SDS011;65496;50.978;16.998;2023-01-19T01:23:29;21.95;;;14.55;;
76604;SDS011;65496;50.978;16.998;2023-01-19T01:25:55;20.60;;;14.02;;
76604;SDS011;65496;50.978;16.998;2023-01-19T01:28:21;20.08;;;13.30;;
76604;SDS011;65496;50.978;16.998;2023-01-19T01:30:51;16.80;;;12.73;;
76604;SDS011;65496;50.978;16.998;2023-01-19T01:33:18;17.05;;;14.32;;
76604;SDS011;65496;50.978;16.998;2023-01-19T01:35:44;19.65;;;15.02;;
76604;SDS011;65496;50.978;16.998;2023-01-19T01:38:10;16.33;;;12.73;;
76604;SDS011;65496;50.978;16.998;2023-01-19T01:40:39;18.05;;;13.77;;
76604;SDS011;65496;50.978;16.998;2023-01-19T01:43:10;17.08;;;13.40;;
76604;SDS011;65496;50.978;16.998;2023-01-19T01:45:38;19.13;;;13.82;;
76604;SDS011;65496;50.978;16.998;2023-01-19T01:54:25;17.70;;;12.90;;
76604;SDS011;65496;50.978;16.998;2023-01-19T01:56:54;20.05;;;14.05;;
76604;SDS011;65496;50.978;16.998;2023-01-19T01:59:26;19.73;;;13.50;;
76604;SDS011;65496;50.978;16.998;2023-01-19T02:02:04;19.05;;;12.88;;
76604;SDS011;65496;50.978;16.998;2023-01-19T02:04:59;19.52;;;14.63;;
76604;SDS011;65496;50.978;16.998;2023-01-19T02:07:32;17.38;;;12.98;;
76604;SDS011;65496;50.978;16.998;2023-01-19T02:10:37;18.60;;;13.70;;
76604;SDS011;65496;50.978;16.998;2023-01-19T02:13:23;18.33;;;12.55;;
76604;SDS011;65496;50.978;16.998;2023-01-19T02:15:51;17.90;;;13.85;;
76604;SDS011;65496;50.978;16.998;2023-01-19T02:18:19;16.08;;;12.43;;
76604;SDS011;65496;50.978;16.998;2023-01-19T02:20:49;15.68;;;11.50;;
76604;SDS011;65496;50.978;16.998;2023-01-19T02:26:09;15.95;;;12.45;;
76604;SDS011;65496;50.978;16.998;2023-01-19T02:28:42;15.27;;;12.07;;
76604;SDS011;65496;50.978;16.998;2023-01-19T02:31:13;17.13;;;11.77;;
76604;SDS011;65496;50.978;16.998;2023-01-19T02:33:39;16.65;;;11.70;;
76604;SDS011;65496;50.978;16.998;2023-01-19T02:36:06;13.02;;;11.18;;
76604;SDS011;65496;50.978;16.998;2023-01-19T02:38:35;16.48;;;11.25;;
76604;SDS011;65496;50.978;16.998;2023-01-19T02:41:03;13.48;;;10.65;;
76604;SDS011;65496;50.978;16.998;2023-01-19T02:43:32;13.32;;;11.40;;
76604;SDS011;65496;50.978;16.998;2023-01-19T02:45:59;13.45;;;10.77;;
76604;SDS011;65496;50.978;16.998;2023-01-19T02:48:25;13.82;;;10.98;;
76604;SDS011;65496;50.978;16.998;2023-01-19T02:50:52;12.48;;;10.30;;
76604;SDS011;65496;50.978;16.998;2023-01-19T03:01:36;12.93;;;8.90;;
76604;SDS011;65496;50.978;16.998;2023-01-19T03:04:51;11.40;;;8.85;;
76604;SDS011;65496;50.978;16.998;2023-01-19T03:10:40;12.68;;;9.35;;
76604;SDS011;65496;50.978;16.998;2023-01-19T03:15:47;10.57;;;8.50;;
76604;SDS011;65496;50.978;16.998;2023-01-19T03:18:28;10.57;;;8.10;;
76604;SDS011;65496;50.978;16.998;2023-01-19T03:20:59;9.30;;;7.05;;
76604;SDS011;65496;50.978;16.998;2023-01-19T03:23:30;10.38;;;8.05;;
76604;SDS011;65496;50.978;16.998;2023-01-19T03:25:58;9.93;;;8.10;;
76604;SDS011;65496;50.978;16.998;2023-01-19T03:28:27;10.23;;;7.57;;
76604;SDS011;65496;50.978;16.998;2023-01-19T03:30:56;8.48;;;6.93;;
76604;SDS011;65496;50.978;16.998;2023-01-19T03:33:28;6.97;;;6.07;;
76604;SDS011;65496;50.978;16.998;2023-01-19T03:35:58;8.73;;;7.45;;
76604;SDS011;65496;50.978;16.998;2023-01-19T03:38:32;9.07;;;7.63;;
76604;SDS011;65496;50.978;16.998;2023-01-19T03:41:05;7.85;;;6.55;;
76604;SDS011;65496;50.978;16.998;2023-01-19T03:43:40;10.73;;;6.68;;
76604;SDS011;65496;50.978;16.998;2023-01-19T03:46:06;8.18;;;7.20;;
76604;SDS011;65496;50.978;16.998;2023-01-19T03:48:35;9.63;;;7.38;;
76604;SDS011;65496;50.978;16.998;2023-01-19T03:51:03;9.68;;;7.07;;
76604;SDS011;65496;50.978;16.998;2023-01-19T03:53:31;8.55;;;6.82;;
76604;SDS011;65496;50.978;16.998;2023-01-19T03:55:57;7.38;;;5.15;;
76604;SDS011;65496;50.978;16.998;2023-01-19T03:58:23;8.75;;;6.45;;
76604;SDS011;65496;50.978;16.998;2023-01-19T04:00:49;8.30;;;6.82;;
76604;SDS011;65496;50.978;16.998;2023-01-19T04:03:16;7.32;;;6.22;;
76604;SDS011;65496;50.978;16.998;2023-01-19T04:05:43;8.50;;;6.28;;
76604;SDS011;65496;50.978;16.998;2023-01-19T04:08:09;8.32;;;6.28;;
76604;SDS011;65496;50.978;16.998;2023-01-19T04:10:35;8.10;;;6.55;;
76604;SDS011;65496;50.978;16.998;2023-01-19T04:13:02;7.18;;;5.75;;
76604;SDS011;65496;50.978;16.998;2023-01-19T04:15:28;7.40;;;6.20;;
76604;SDS011;65496;50.978;16.998;2023-01-19T04:17:56;6.45;;;5.32;;
76604;SDS011;65496;50.978;16.998;2023-01-19T04:20:22;7.57;;;5.93;;
76604;SDS011;65496;50.978;16.998;2023-01-19T04:22:49;7.45;;;5.85;;
76604;SDS011;65496;50.978;16.998;2023-01-19T04:25:14;7.35;;;5.63;;
76604;SDS011;65496;50.978;16.998;2023-01-19T04:27:41;6.85;;;5.13;;
76604;SDS011;65496;50.978;16.998;2023-01-19T04:30:07;6.55;;;5.30;;
76604;SDS011;65496;50.978;16.998;2023-01-19T04:32:34;6.68;;;5.50;;
76604;SDS011;65496;50.978;16.998;2023-01-19T04:35:00;6.90;;;5.40;;
76604;SDS011;65496;50.978;16.998;2023-01-19T04:37:26;6.93;;;5.47;;
76604;SDS011;65496;50.978;16.998;2023-01-19T04:39:52;5.68;;;4.97;;
76604;SDS011;65496;50.978;16.998;2023-01-19T04:42:18;6.05;;;4.90;;
76604;SDS011;65496;50.978;16.998;2023-01-19T04:44:44;7.15;;;5.32;;
76604;SDS011;65496;50.978;16.998;2023-01-19T04:47:10;6.28;;;4.97;;
76604;SDS011;65496;50.978;16.998;2023-01-19T04:49:36;6.05;;;4.75;;
76604;SDS011;65496;50.978;16.998;2023-01-19T04:52:03;5.68;;;4.88;;
76604;SDS011;65496;50.978;16.998;2023-01-19T04:54:29;6.07;;;5.03;;
76604;SDS011;65496;50.978;16.998;2023-01-19T04:56:55;6.03;;;5.07;;
76604;SDS011;65496;50.978;16.998;2023-01-19T04:59:22;5.78;;;4.75;;
76604;SDS011;65496;50.978;16.998;2023-01-19T05:01:48;5.90;;;4.63;;
76604;SDS011;65496;50.978;16.998;2023-01-19T05:04:14;6.65;;;4.97;;
76604;SDS011;65496;50.978;16.998;2023-01-19T05:06:41;6.00;;;4.72;;
76604;SDS011;65496;50.978;16.998;2023-01-19T05:09:06;5.25;;;4.72;;
76604;SDS011;65496;50.978;16.998;2023-01-19T05:11:34;5.88;;;4.80;;
76604;SDS011;65496;50.978;16.998;2023-01-19T05:14:00;6.25;;;5.15;;
76604;SDS011;65496;50.978;16.998;2023-01-19T05:16:26;6.30;;;4.93;;
76604;SDS011;65496;50.978;16.998;2023-01-19T05:18:52;6.00;;;4.80;;
76604;SDS011;65496;50.978;16.998;2023-01-19T05:21:18;6.72;;;4.97;;
76604;SDS011;65496;50.978;16.998;2023-01-19T05:23:44;5.90;;;4.90;;
76604;SDS011;65496;50.978;16.998;2023-01-19T05:26:11;6.07;;;5.32;;
76604;SDS011;65496;50.978;16.998;2023-01-19T05:28:37;6.07;;;5.10;;
76604;SDS011;65496;50.978;16.998;2023-01-19T05:31:03;5.28;;;4.60;;
76604;SDS011;65496;50.978;16.998;2023-01-19T05:33:29;5.63;;;4.50;;
76604;SDS011;65496;50.978;16.998;2023-01-19T05:35:56;5.82;;;5.03;;
76604;SDS011;65496;50.978;16.998;2023-01-19T05:38:22;5.43;;;4.80;;
76604;SDS011;65496;50.978;16.998;2023-01-19T05:40:48;5.75;;;4.65;;
76604;SDS011;65496;50.978;16.998;2023-01-19T05:43:20;5.50;;;4.20;;
76604;SDS011;65496;50.978;16.998;2023-01-19T05:45:46;6.75;;;4.32;;
76604;SDS011;65496;50.978;16.998;2023-01-19T05:48:12;5.40;;;4.13;;
76604;SDS011;65496;50.978;16.998;2023-01-19T05:50:38;5.38;;;4.25;;
76604;SDS011;65496;50.978;16.998;2023-01-19T05:53:04;5.30;;;4.57;;
76604;SDS011;65496;50.978;16.998;2023-01-19T05:55:30;4.80;;;4.30;;
76604;SDS011;65496;50.978;16.998;2023-01-19T05:57:56;4.75;;;3.70;;
76604;SDS011;65496;50.978;16.998;2023-01-19T06:00:22;4.55;;;4.15;;
76604;SDS011;65496;50.978;16.998;2023-01-19T06:02:49;5.50;;;4.35;;
76604;SDS011;65496;50.978;16.998;2023-01-19T06:05:15;4.68;;;3.65;;
76604;SDS011;65496;50.978;16.998;2023-01-19T06:07:41;4.70;;;3.90;;
76604;SDS011;65496;50.978;16.998;2023-01-19T06:10:08;4.53;;;3.65;;
76604;SDS011;65496;50.978;16.998;2023-01-19T06:12:34;5.13;;;3.90;;
76604;SDS011;65496;50.978;16.998;2023-01-19T06:15:00;4.60;;;3.70;;
76604;SDS011;65496;50.978;16.998;2023-01-19T06:17:26;4.80;;;4.05;;
76604;SDS011;65496;50.978;16.998;2023-01-19T06:19:52;3.72;;;3.20;;
76604;SDS011;65496;50.978;16.998;2023-01-19T06:22:18;4.75;;;4.18;;
76604;SDS011;65496;50.978;16.998;2023-01-19T06:24:44;4.05;;;3.65;;
76604;SDS011;65496;50.978;16.998;2023-01-19T06:27:10;5.22;;;3.95;;
76604;SDS011;65496;50.978;16.998;2023-01-19T06:29:36;4.82;;;3.88;;
76604;SDS011;65496;50.978;16.998;2023-01-19T06:32:02;4.55;;;3.90;;
76604;SDS011;65496;50.978;16.998;2023-01-19T06:34:29;4.82;;;3.90;;
76604;SDS011;65496;50.978;16.998;2023-01-19T06:36:55;3.92;;;3.35;;
76604;SDS011;65496;50.978;16.998;2023-01-19T06:39:21;4.55;;;3.40;;
76604;SDS011;65496;50.978;16.998;2023-01-19T06:41:47;4.45;;;4.05;;
76604;SDS011;65496;50.978;16.998;2023-01-19T06:44:13;4.70;;;3.97;;
76604;SDS011;65496;50.978;16.998;2023-01-19T06:46:39;5.55;;;3.35;;
76604;SDS011;65496;50.978;16.998;2023-01-19T06:49:06;6.55;;;4.10;;
76604;SDS011;65496;50.978;16.998;2023-01-19T06:51:32;5.35;;;4.03;;
76604;SDS011;65496;50.978;16.998;2023-01-19T06:53:58;4.30;;;3.90;;
76604;SDS011;65496;50.978;16.998;2023-01-19T06:56:24;5.45;;;4.32;;
76604;SDS011;65496;50.978;16.998;2023-01-19T06:58:51;4.50;;;3.95;;
76604;SDS011;65496;50.978;16.998;2023-01-19T07:01:20;4.25;;;3.85;;
76604;SDS011;65496;50.978;16.998;2023-01-19T07:03:46;4.47;;;3.47;;
76604;SDS011;65496;50.978;16.998;2023-01-19T07:06:12;6.03;;;4.00;;
76604;SDS011;65496;50.978;16.998;2023-01-19T07:08:38;6.32;;;3.65;;
76604;SDS011;65496;50.978;16.998;2023-01-19T07:11:06;4.90;;;3.95;;
76604;SDS011;65496;50.978;16.998;2023-01-19T07:13:33;4.28;;;3.17;;
76604;SDS011;65496;50.978;16.998;2023-01-19T07:16:10;4.68;;;3.50;;
76604;SDS011;65496;50.978;16.998;2023-01-19T07:21:03;3.65;;;3.30;;
76604;SDS011;65496;50.978;16.998;2023-01-19T07:23:30;3.72;;;3.25;;
76604;SDS011;65496;50.978;16.998;2023-01-19T07:25:56;4.72;;;3.80;;
76604;SDS011;65496;50.978;16.998;2023-01-19T07:28:23;3.88;;;3.28;;
76604;SDS011;65496;50.978;16.998;2023-01-19T07:30:50;3.58;;;3.22;;
76604;SDS011;65496;50.978;16.998;2023-01-19T07:33:16;3.80;;;2.80;;
76604;SDS011;65496;50.978;16.998;2023-01-19T07:35:46;5.05;;;2.92;;
76604;SDS011;65496;50.978;16.998;2023-01-19T07:38:15;3.88;;;3.25;;
76604;SDS011;65496;50.978;16.998;2023-01-19T07:40:43;3.95;;;3.08;;
76604;SDS011;65496;50.978;16.998;2023-01-19T07:43:11;4.45;;;3.08;;
76604;SDS011;65496;50.978;16.998;2023-01-19T07:45:38;4.72;;;3.45;;
76604;SDS011;65496;50.978;16.998;2023-01-19T07:48:04;4.55;;;3.60;;
76604;SDS011;65496;50.978;16.998;2023-01-19T07:50:30;3.72;;;3.10;;
76604;SDS011;65496;50.978;16.998;2023-01-19T07:52:56;4.85;;;3.60;;
76604;SDS011;65496;50.978;16.998;2023-01-19T07:55:28;4.35;;;3.58;;
76604;SDS011;65496;50.978;16.998;2023-01-19T07:57:54;3.83;;;2.90;;
76604;SDS011;65496;50.978;16.998;2023-01-19T08:00:20;4.55;;;3.10;;
76604;SDS011;65496;50.978;16.998;2023-01-19T08:02:49;4.35;;;3.05;;
76604;SDS011;65496;50.978;16.998;2023-01-19T08:05:17;4.50;;;3.70;;
76604;SDS011;65496;50.978;16.998;2023-01-19T08:07:44;3.47;;;2.70;;
76604;SDS011;65496;50.978;16.998;2023-01-19T08:10:12;3.83;;;3.40;;
76604;SDS011;65496;50.978;16.998;2023-01-19T08:12:38;3.75;;;3.22;;
76604;SDS011;65496;50.978;16.998;2023-01-19T08:15:07;3.72;;;2.92;;
76604;SDS011;65496;50.978;16.998;2023-01-19T08:17:36;3.80;;;3.40;;
76604;SDS011;65496;50.978;16.998;2023-01-19T08:20:02;4.65;;;3.22;;
76604;SDS011;65496;50.978;16.998;2023-01-19T08:22:28;3.67;;;2.92;;
76604;SDS011;65496;50.978;16.998;2023-01-19T08:24:55;3.95;;;3.13;;
76604;SDS011;65496;50.978;16.998;2023-01-19T08:27:20;3.72;;;3.00;;
76604;SDS011;65496;50.978;16.998;2023-01-19T08:29:47;4.57;;;3.35;;
76604;SDS011;65496;50.978;16.998;2023-01-19T08:32:13;4.05;;;2.85;;
76604;SDS011;65496;50.978;16.998;2023-01-19T08:34:39;4.85;;;3.17;;
76604;SDS011;65496;50.978;16.998;2023-01-19T08:37:05;4.68;;;3.35;;
76604;SDS011;65496;50.978;16.998;2023-01-19T08:39:31;3.10;;;2.60;;
76604;SDS011;65496;50.978;16.998;2023-01-19T08:41:57;4.32;;;3.05;;
76604;SDS011;65496;50.978;16.998;2023-01-19T08:44:25;4.60;;;3.20;;
76604;SDS011;65496;50.978;16.998;2023-01-19T08:46:51;3.97;;;3.08;;
76604;SDS011;65496;50.978;16.998;2023-01-19T08:49:18;4.20;;;3.28;;
76604;SDS011;65496;50.978;16.998;2023-01-19T08:51:45;5.18;;;2.95;;
76604;SDS011;65496;50.978;16.998;2023-01-19T08:54:11;3.97;;;2.95;;
76604;SDS011;65496;50.978;16.998;2023-01-19T08:56:38;3.92;;;3.13;;
76604;SDS011;65496;50.978;16.998;2023-01-19T08:59:04;4.22;;;3.45;;
76604;SDS011;65496;50.978;16.998;2023-01-19T09:01:30;4.80;;;3.08;;
76604;SDS011;65496;50.978;16.998;2023-01-19T09:03:56;4.05;;;2.80;;
76604;SDS011;65496;50.978;16.998;2023-01-19T09:06:22;3.83;;;3.10;;
76604;SDS011;65496;50.978;16.998;2023-01-19T09:08:50;4.20;;;2.72;;
76604;SDS011;65496;50.978;16.998;2023-01-19T09:11:15;4.47;;;3.08;;
76604;SDS011;65496;50.978;16.998;2023-01-19T09:13:42;4.05;;;2.90;;
76604;SDS011;65496;50.978;16.998;2023-01-19T09:16:08;3.60;;;2.95;;
76604;SDS011;65496;50.978;16.998;2023-01-19T09:18:36;4.53;;;2.80;;
76604;SDS011;65496;50.978;16.998;2023-01-19T09:21:02;3.88;;;3.05;;
76604;SDS011;65496;50.978;16.998;2023-01-19T09:23:28;3.58;;;3.08;;
76604;SDS011;65496;50.978;16.998;2023-01-19T09:25:55;4.13;;;3.30;;
76604;SDS011;65496;50.978;16.998;2023-01-19T09:28:24;4.05;;;2.92;;
76604;SDS011;65496;50.978;16.998;2023-01-19T09:30:50;4.30;;;3.70;;
76604;SDS011;65496;50.978;16.998;2023-01-19T09:33:16;3.95;;;3.00;;
76604;SDS011;65496;50.978;16.998;2023-01-19T09:35:45;3.72;;;3.17;;
76604;SDS011;65496;50.978;16.998;2023-01-19T09:38:15;4.38;;;2.92;;
76604;SDS011;65496;50.978;16.998;2023-01-19T09:40:44;4.45;;;3.00;;
76604;SDS011;65496;50.978;16.998;2023-01-19T09:43:34;3.65;;;2.95;;
76604;SDS011;65496;50.978;16.998;2023-01-19T09:51:17;3.78;;;2.72;;
76604;SDS011;65496;50.978;16.998;2023-01-19T09:56:21;3.92;;;3.22;;
76604;SDS011;65496;50.978;16.998;2023-01-19T09:58:48;4.32;;;3.00;;
76604;SDS011;65496;50.978;16.998;2023-01-19T10:02:02;3.72;;;2.80;;
76604;SDS011;65496;50.978;16.998;2023-01-19T10:04:27;3.63;;;2.63;;
76604;SDS011;65496;50.978;16.998;2023-01-19T10:07:11;3.10;;;2.80;;
76604;SDS011;65496;50.978;16.998;2023-01-19T10:09:55;3.60;;;2.63;;
76604;SDS011;65496;50.978;16.998;2023-01-19T10:12:32;3.03;;;2.45;;
76604;SDS011;65496;50.978;16.998;2023-01-19T10:18:18;4.10;;;2.55;;
76604;SDS011;65496;50.978;16.998;2023-01-19T10:20:49;4.00;;;2.70;;
76604;SDS011;65496;50.978;16.998;2023-01-19T10:26:22;3.35;;;2.58;;
76604;SDS011;65496;50.978;16.998;2023-01-19T10:28:49;3.00;;;2.58;;
76604;SDS011;65496;50.978;16.998;2023-01-19T10:31:19;4.13;;;2.72;;
76604;SDS011;65496;50.978;16.998;2023-01-19T10:33:48;3.97;;;2.85;;
76604;SDS011;65496;50.978;16.998;2023-01-19T10:36:17;3.35;;;2.70;;
76604;SDS011;65496;50.978;16.998;2023-01-19T10:38:44;3.33;;;2.60;;
76604;SDS011;65496;50.978;16.998;2023-01-19T10:41:23;3.28;;;2.72;;
76604;SDS011;65496;50.978;16.998;2023-01-19T10:43:58;3.63;;;3.00;;
76604;SDS011;65496;50.978;16.998;2023-01-19T10:46:33;3.30;;;2.55;;
76604;SDS011;65496;50.978;16.998;2023-01-19T10:49:20;3.50;;;2.78;;
76604;SDS011;65496;50.978;16.998;2023-01-19T10:51:50;3.72;;;2.50;;
76604;SDS011;65496;50.978;16.998;2023-01-19T10:54:16;3.42;;;2.70;;
76604;SDS011;65496;50.978;16.998;2023-01-19T10:56:42;3.40;;;2.80;;
76604;SDS011;65496;50.978;16.998;2023-01-19T11:04:48;3.65;;;2.50;;
76604;SDS011;65496;50.978;16.998;2023-01-19T11:09:45;2.83;;;2.30;;
76604;SDS011;65496;50.978;16.998;2023-01-19T11:12:16;3.17;;;2.13;;
76604;SDS011;65496;50.978;16.998;2023-01-19T11:14:42;4.85;;;2.72;;
76604;SDS011;65496;50.978;16.998;2023-01-19T11:17:15;3.08;;;2.40;;
76604;SDS011;65496;50.978;16.998;2023-01-19T11:19:51;2.70;;;2.22;;
76604;SDS011;65496;50.978;16.998;2023-01-19T11:22:19;2.70;;;2.30;;
76604;SDS011;65496;50.978;16.998;2023-01-19T11:24:51;4.22;;;3.08;;
76604;SDS011;65496;50.978;16.998;2023-01-19T11:27:20;3.03;;;2.42;;
76604;SDS011;65496;50.978;16.998;2023-01-19T11:29:57;3.17;;;2.40;;
76604;SDS011;65496;50.978;16.998;2023-01-19T11:32:29;3.88;;;2.03;;
76604;SDS011;65496;50.978;16.998;2023-01-19T11:34:57;3.45;;;2.50;;
76604;SDS011;65496;50.978;16.998;2023-01-19T11:37:26;2.88;;;2.47;;
76604;SDS011;65496;50.978;16.998;2023-01-19T11:39:55;2.97;;;2.30;;
76604;SDS011;65496;50.978;16.998;2023-01-19T11:42:23;4.05;;;2.90;;
76604;SDS011;65496;50.978;16.998;2023-01-19T11:47:22;4.07;;;2.20;;
76604;SDS011;65496;50.978;16.998;2023-01-19T11:50:08;3.97;;;2.50;;
76604;SDS011;65496;50.978;16.998;2023-01-19T11:58:02;3.15;;;2.30;;
76604;SDS011;65496;50.978;16.998;2023-01-19T12:00:33;4.53;;;2.63;;
76604;SDS011;65496;50.978;16.998;2023-01-19T12:03:59;3.63;;;2.50;;
76604;SDS011;65496;50.978;16.998;2023-01-19T12:06:29;3.15;;;2.22;;
76604;SDS011;65496;50.978;16.998;2023-01-19T12:11:30;2.22;;;2.00;;
76604;SDS011;65496;50.978;16.998;2023-01-19T12:14:00;3.35;;;2.47;;
76604;SDS011;65496;50.978;16.998;2023-01-19T12:16:30;3.35;;;2.38;;
76604;SDS011;65496;50.978;16.998;2023-01-19T12:19:00;4.30;;;2.67;;
76604;SDS011;65496;50.978;16.998;2023-01-19T12:21:28;4.03;;;2.30;;
76604;SDS011;65496;50.978;16.998;2023-01-19T12:24:16;4.13;;;2.60;;
76604;SDS011;65496;50.978;16.998;2023-01-19T12:29:21;2.95;;;1.90;;
76604;SDS011;65496;50.978;16.998;2023-01-19T12:35:13;2.53;;;1.90;;
76604;SDS011;65496;50.978;16.998;2023-01-19T12:40:22;2.58;;;2.03;;
76604;SDS011;65496;50.978;16.998;2023-01-19T12:43:00;3.08;;;2.20;;
76604;SDS011;65496;50.978;16.998;2023-01-19T12:45:31;3.15;;;2.10;;
76604;SDS011;65496;50.978;16.998;2023-01-19T12:47:59;3.15;;;2.20;;
76604;SDS011;65496;50.978;16.998;2023-01-19T12:50:27;3.15;;;2.30;;
76604;SDS011;65496;50.978;16.998;2023-01-19T12:53:02;3.58;;;2.20;;
76604;SDS011;65496;50.978;16.998;2023-01-19T12:55:33;3.80;;;2.40;;
76604;SDS011;65496;50.978;16.998;2023-01-19T12:58:20;3.03;;;2.28;;
76604;SDS011;65496;50.978;16.998;2023-01-19T13:00:49;3.08;;;2.17;;
76604;SDS011;65496;50.978;16.998;2023-01-19T13:03:58;3.42;;;2.22;;
76604;SDS011;65496;50.978;16.998;2023-01-19T13:09:36;3.67;;;2.33;;
76604;SDS011;65496;50.978;16.998;2023-01-19T13:14:38;3.30;;;2.30;;
76604;SDS011;65496;50.978;16.998;2023-01-19T13:17:11;3.00;;;2.40;;
76604;SDS011;65496;50.978;16.998;2023-01-19T13:19:42;3.28;;;2.47;;
76604;SDS011;65496;50.978;16.998;2023-01-19T13:22:59;4.00;;;2.35;;
76604;SDS011;65496;50.978;16.998;2023-01-19T13:25:25;3.58;;;2.30;;
76604;SDS011;65496;50.978;16.998;2023-01-19T13:27:54;3.58;;;2.60;;
76604;SDS011;65496;50.978;16.998;2023-01-19T13:30:21;2.92;;;2.30;;
76604;SDS011;65496;50.978;16.998;2023-01-19T13:32:53;3.22;;;2.35;;
76604;SDS011;65496;50.978;16.998;2023-01-19T13:35:21;5.03;;;2.97;;
76604;SDS011;65496;50.978;16.998;2023-01-19T13:37:48;2.92;;;2.33;;
76604;SDS011;65496;50.978;16.998;2023-01-19T13:40:21;3.15;;;2.10;;
76604;SDS011;65496;50.978;16.998;2023-01-19T13:42:50;3.08;;;2.25;;
76604;SDS011;65496;50.978;16.998;2023-01-19T13:45:31;3.78;;;2.60;;
76604;SDS011;65496;50.978;16.998;2023-01-19T13:48:03;3.97;;;2.67;;
76604;SDS011;65496;50.978;16.998;2023-01-19T13:50:32;3.20;;;2.28;;
76604;SDS011;65496;50.978;16.998;2023-01-19T13:53:01;2.85;;;2.20;;
76604;SDS011;65496;50.978;16.998;2023-01-19T13:55:29;3.03;;;2.30;;
76604;SDS011;65496;50.978;16.998;2023-01-19T13:57:56;3.92;;;2.65;;
76604;SDS011;65496;50.978;16.998;2023-01-19T14:00:26;2.67;;;2.08;;
76604;SDS011;65496;50.978;16.998;2023-01-19T14:02:55;3.60;;;2.30;;
76604;SDS011;65496;50.978;16.998;2023-01-19T14:10:26;3.30;;;2.60;;
76604;SDS011;65496;50.978;16.998;2023-01-19T14:12:59;3.85;;;2.85;;
76604;SDS011;65496;50.978;16.998;2023-01-19T14:15:27;3.45;;;2.55;;
76604;SDS011;65496;50.978;16.998;2023-01-19T14:18:17;2.95;;;2.20;;
76604;SDS011;65496;50.978;16.998;2023-01-19T14:21:03;3.20;;;2.55;;
76604;SDS011;65496;50.978;16.998;2023-01-19T14:23:50;3.35;;;2.35;;
76604;SDS011;65496;50.978;16.998;2023-01-19T14:26:38;3.15;;;2.30;;
76604;SDS011;65496;50.978;16.998;2023-01-19T14:31:46;3.10;;;2.35;;
76604;SDS011;65496;50.978;16.998;2023-01-19T14:39:45;3.70;;;2.22;;
76604;SDS011;65496;50.978;16.998;2023-01-19T14:42:25;3.22;;;2.40;;
76604;SDS011;65496;50.978;16.998;2023-01-19T14:44:53;2.80;;;2.38;;
76604;SDS011;65496;50.978;16.998;2023-01-19T14:47:25;3.47;;;2.75;;
76604;SDS011;65496;50.978;16.998;2023-01-19T14:49:55;4.05;;;2.95;;
76604;SDS011;65496;50.978;16.998;2023-01-19T14:52:27;3.50;;;2.50;;
76604;SDS011;65496;50.978;16.998;2023-01-19T14:54:57;3.97;;;2.30;;
76604;SDS011;65496;50.978;16.998;2023-01-19T14:57:27;3.73;;;2.40;;
76604;SDS011;65496;50.978;16.998;2023-01-19T14:59:53;4.53;;;2.63;;
76604;SDS011;65496;50.978;16.998;2023-01-19T15:02:20;3.38;;;2.40;;
76604;SDS011;65496;50.978;16.998;2023-01-19T15:04:46;3.45;;;2.42;;
76604;SDS011;65496;50.978;16.998;2023-01-19T15:07:18;5.45;;;2.72;;
76604;SDS011;65496;50.978;16.998;2023-01-19T15:09:47;5.20;;;2.80;;
76604;SDS011;65496;50.978;16.998;2023-01-19T15:12:14;5.32;;;2.33;;
76604;SDS011;65496;50.978;16.998;2023-01-19T15:14:42;3.67;;;2.40;;
76604;SDS011;65496;50.978;16.998;2023-01-19T15:17:13;3.03;;;2.15;;
76604;SDS011;65496;50.978;16.998;2023-01-19T15:19:42;3.67;;;2.30;;
76604;SDS011;65496;50.978;16.998;2023-01-19T15:22:11;3.33;;;2.60;;
76604;SDS011;65496;50.978;16.998;2023-01-19T15:24:38;2.95;;;2.17;;
76604;SDS011;65496;50.978;16.998;2023-01-19T15:27:07;3.70;;;2.90;;
76604;SDS011;65496;50.978;16.998;2023-01-19T15:29:35;4.72;;;2.25;;
76604;SDS011;65496;50.978;16.998;2023-01-19T15:32:01;3.63;;;2.50;;
76604;SDS011;65496;50.978;16.998;2023-01-19T15:34:28;4.13;;;2.75;;
76604;SDS011;65496;50.978;16.998;2023-01-19T15:36:54;2.80;;;2.20;;
76604;SDS011;65496;50.978;16.998;2023-01-19T15:39:20;3.75;;;2.40;;
76604;SDS011;65496;50.978;16.998;2023-01-19T15:41:46;3.78;;;2.67;;
76604;SDS011;65496;50.978;16.998;2023-01-19T15:44:12;4.70;;;2.22;;
76604;SDS011;65496;50.978;16.998;2023-01-19T15:46:39;3.38;;;2.40;;
76604;SDS011;65496;50.978;16.998;2023-01-19T15:49:05;2.95;;;2.30;;
76604;SDS011;65496;50.978;16.998;2023-01-19T15:51:31;3.65;;;2.92;;
76604;SDS011;65496;50.978;16.998;2023-01-19T15:53:57;2.70;;;2.10;;
76604;SDS011;65496;50.978;16.998;2023-01-19T15:56:24;3.17;;;2.35;;
76604;SDS011;65496;50.978;16.998;2023-01-19T15:58:52;3.30;;;2.30;;
76604;SDS011;65496;50.978;16.998;2023-01-19T16:01:20;3.10;;;2.03;;
76604;SDS011;65496;50.978;16.998;2023-01-19T16:03:48;3.97;;;2.30;;
76604;SDS011;65496;50.978;16.998;2023-01-19T16:06:15;4.97;;;2.60;;
76604;SDS011;65496;50.978;16.998;2023-01-19T16:08:42;3.42;;;2.50;;